sensor_id;sensor_type;location;lat;lon;timestamp;pressure;altitude;pressure_sealevel;temperature;humidity
20955;BME280;10636;19.390;-99.256;2023-05-11T00:00:29;77882.97;;;24.84;43.77
20955;BME280;10636;19.390;-99.256;2023-05-11T00:02:58;77873.63;;;24.85;44.13
20955;BME280;10636;19.390;-99.256;2023-05-11T00:05:32;77867.56;;;24.85;44.15
20955;BME280;10636;19.390;-99.256;2023-05-11T00:08:06;77873.53;;;24.83;44.12
20955;BME280;10636;19.390;-99.256;2023-05-11T00:10:40;77874.84;;;24.82;43.61
20955;BME280;10636;19.390;-99.256;2023-05-11T00:13:09;77847.38;;;24.64;43.38
20955;BME280;10636;19.390;-99.256;2023-05-11T00:15:38;77886.34;;;24.85;43.63
20955;BME280;10636;19.390;-99.256;2023-05-11T00:18:07;77874.69;;;24.78;43.67
20955;BME280;10636;19.390;-99.256;2023-05-11T00:20:43;77879.69;;;24.86;43.65
20955;BME280;10636;19.390;-99.256;2023-05-11T00:23:13;77886.41;;;24.87;43.02
20955;BME280;10636;19.390;-99.256;2023-05-11T00:25:45;77850.75;;;24.64;43.21
20955;BME280;10636;19.390;-99.256;2023-05-11T00:28:21;77883.19;;;24.90;43.26
20955;BME280;10636;19.390;-99.256;2023-05-11T00:30:56;77893.25;;;24.90;43.67
20955;BME280;10636;19.390;-99.256;2023-05-11T00:33:30;77891.84;;;24.89;43.20
20955;BME280;10636;19.390;-99.256;2023-05-11T00:36:07;77894.53;;;24.89;43.21
20955;BME280;10636;19.390;-99.256;2023-05-11T00:38:39;77890.56;;;24.90;43.22
20955;BME280;10636;19.390;-99.256;2023-05-11T00:41:09;77900.59;;;24.89;42.58
20955;BME280;10636;19.390;-99.256;2023-05-11T00:43:40;77906.56;;;24.88;42.80
20955;BME280;10636;19.390;-99.256;2023-05-11T00:46:09;77901.28;;;24.90;42.52
20955;BME280;10636;19.390;-99.256;2023-05-11T00:48:45;77884.72;;;24.77;42.74
20955;BME280;10636;19.390;-99.256;2023-05-11T00:51:16;77875.16;;;24.72;42.43
20955;BME280;10636;19.390;-99.256;2023-05-11T00:53:45;77901.34;;;24.92;42.50
20955;BME280;10636;19.390;-99.256;2023-05-11T00:56:17;77893.31;;;24.92;42.29
20955;BME280;10636;19.390;-99.256;2023-05-11T00:58:50;77898.69;;;24.92;42.03
20955;BME280;10636;19.390;-99.256;2023-05-11T01:01:22;77897.22;;;24.89;42.24
20955;BME280;10636;19.390;-99.256;2023-05-11T01:03:52;77897.16;;;24.87;42.18
20955;BME280;10636;19.390;-99.256;2023-05-11T01:06:26;77897.09;;;24.85;41.81
20955;BME280;10636;19.390;-99.256;2023-05-11T01:09:02;77897.69;;;24.83;42.38
20955;BME280;10636;19.390;-99.256;2023-05-11T01:11:38;77895.63;;;24.82;42.02
20955;BME280;10636;19.390;-99.256;2023-05-11T01:14:15;77905.59;;;24.79;41.82
20955;BME280;10636;19.390;-99.256;2023-05-11T01:16:54;77894.19;;;24.78;41.95
20955;BME280;10636;19.390;-99.256;2023-05-11T01:19:33;77901.50;;;24.78;42.03
20955;BME280;10636;19.390;-99.256;2023-05-11T01:22:19;77894.09;;;24.76;41.78
20955;BME280;10636;19.390;-99.256;2023-05-11T01:25:05;77890.66;;;24.74;41.81
20955;BME280;10636;19.390;-99.256;2023-05-11T01:27:55;77893.94;;;24.72;42.04
20955;BME280;10636;19.390;-99.256;2023-05-11T01:30:37;77897.91;;;24.71;41.78
20955;BME280;10636;19.390;-99.256;2023-05-11T01:33:14;77885.44;;;24.60;41.62
20955;BME280;10636;19.390;-99.256;2023-05-11T01:35:50;77892.41;;;24.67;41.97
20955;BME280;10636;19.390;-99.256;2023-05-11T01:38:21;77895.09;;;24.67;41.65
20955;BME280;10636;19.390;-99.256;2023-05-11T01:40:56;77895.69;;;24.66;42.02
20955;BME280;10636;19.390;-99.256;2023-05-11T01:43:27;77889.66;;;24.65;41.80
20955;BME280;10636;19.390;-99.256;2023-05-11T01:46:01;77900.38;;;24.65;41.65
20955;BME280;10636;19.390;-99.256;2023-05-11T01:48:34;77887.97;;;24.56;41.62
20955;BME280;10636;19.390;-99.256;2023-05-11T01:51:07;77895.09;;;24.67;41.93
20955;BME280;10636;19.390;-99.256;2023-05-11T01:53:40;77895.09;;;24.67;41.29
20955;BME280;10636;19.390;-99.256;2023-05-11T01:56:11;77896.38;;;24.66;41.73
20955;BME280;10636;19.390;-99.256;2023-05-11T01:58:42;77893.72;;;24.66;41.32
20955;BME280;10636;19.390;-99.256;2023-05-11T02:01:14;77885.66;;;24.66;41.16
20955;BME280;10636;19.390;-99.256;2023-05-11T02:03:45;77892.41;;;24.67;41.18
20955;BME280;10636;19.390;-99.256;2023-05-11T02:06:16;77899.06;;;24.66;41.33
20955;BME280;10636;19.390;-99.256;2023-05-11T02:08:47;77895.69;;;24.66;41.41
20955;BME280;10636;19.390;-99.256;2023-05-11T02:11:19;77898.38;;;24.66;41.58
20955;BME280;10636;19.390;-99.256;2023-05-11T02:13:51;77899.00;;;24.64;41.83
20955;BME280;10636;19.390;-99.256;2023-05-11T02:16:23;77899.00;;;24.64;41.46
20955;BME280;10636;19.390;-99.256;2023-05-11T02:18:54;77890.28;;;24.64;41.17
20955;BME280;10636;19.390;-99.256;2023-05-11T02:21:24;77892.25;;;24.63;41.21
20955;BME280;10636;19.390;-99.256;2023-05-11T02:23:55;77889.59;;;24.63;41.61
20955;BME280;10636;19.390;-99.256;2023-05-11T02:26:25;77889.50;;;24.61;41.47
20955;BME280;10636;19.390;-99.256;2023-05-11T02:28:54;77896.78;;;24.59;41.47
20955;BME280;10636;19.390;-99.256;2023-05-11T02:31:28;77888.13;;;24.60;41.10
20955;BME280;10636;19.390;-99.256;2023-05-11T02:34:01;77901.59;;;24.62;41.20
20955;BME280;10636;19.390;-99.256;2023-05-11T02:36:32;77896.63;;;24.55;41.90
20955;BME280;10636;19.390;-99.256;2023-05-11T02:39:06;77910.88;;;24.59;41.62
20955;BME280;10636;19.390;-99.256;2023-05-11T02:41:40;77911.50;;;24.58;41.28
20955;BME280;10636;19.390;-99.256;2023-05-11T02:44:14;77918.81;;;24.57;41.72
20955;BME280;10636;19.390;-99.256;2023-05-11T02:46:49;77908.44;;;24.47;41.42
20955;BME280;10636;19.390;-99.256;2023-05-11T02:49:21;77904.97;;;24.45;41.78
20955;BME280;10636;19.390;-99.256;2023-05-11T02:51:54;77920.81;;;24.57;41.70
20955;BME280;10636;19.390;-99.256;2023-05-11T02:54:24;77899.19;;;24.35;41.93
20955;BME280;10636;19.390;-99.256;2023-05-11T02:56:55;77918.75;;;24.55;41.69
20955;BME280;10636;19.390;-99.256;2023-05-11T02:59:25;77930.19;;;24.56;42.11
20955;BME280;10636;19.390;-99.256;2023-05-11T03:01:56;77929.47;;;24.55;41.82
20955;BME280;10636;19.390;-99.256;2023-05-11T03:04:26;77908.63;;;24.36;42.34
20955;BME280;10636;19.390;-99.256;2023-05-11T03:06:55;77921.06;;;24.45;42.00
20955;BME280;10636;19.390;-99.256;2023-05-11T03:09:24;77932.22;;;24.57;42.25
20955;BME280;10636;19.390;-99.256;2023-05-11T03:11:54;77928.28;;;24.58;42.27
20955;BME280;10636;19.390;-99.256;2023-05-11T03:14:23;77932.94;;;24.58;41.75
20955;BME280;10636;19.390;-99.256;2023-05-11T03:16:55;77937.59;;;24.57;42.25
20955;BME280;10636;19.390;-99.256;2023-05-11T03:19:27;77919.50;;;24.40;41.93
20955;BME280;10636;19.390;-99.256;2023-05-11T03:21:57;77942.03;;;24.50;42.23
20955;BME280;10636;19.390;-99.256;2023-05-11T03:24:27;77946.94;;;24.56;42.44
20955;BME280;10636;19.390;-99.256;2023-05-11T03:26:58;77944.25;;;24.56;41.94
20955;BME280;10636;19.390;-99.256;2023-05-11T03:29:28;77953.00;;;24.57;42.11
20955;BME280;10636;19.390;-99.256;2023-05-11T03:31:59;77948.88;;;24.54;42.41
20955;BME280;10636;19.390;-99.256;2023-05-11T03:34:28;77944.81;;;24.52;42.46
20955;BME280;10636;19.390;-99.256;2023-05-11T03:36:57;77950.78;;;24.51;42.32
20955;BME280;10636;19.390;-99.256;2023-05-11T03:39:29;77950.69;;;24.49;42.10
20955;BME280;10636;19.390;-99.256;2023-05-11T03:42:01;77959.44;;;24.49;42.61
20955;BME280;10636;19.390;-99.256;2023-05-11T03:44:31;77952.00;;;24.48;41.91
20955;BME280;10636;19.390;-99.256;2023-05-11T03:47:03;77957.44;;;24.50;41.98
20955;BME280;10636;19.390;-99.256;2023-05-11T03:49:34;77958.22;;;24.52;41.95
20955;BME280;10636;19.390;-99.256;2023-05-11T03:52:05;77951.47;;;24.51;42.57
20955;BME280;10636;19.390;-99.256;2023-05-11T03:54:35;77958.81;;;24.51;42.74
20955;BME280;10636;19.390;-99.256;2023-05-11T03:57:04;77960.13;;;24.50;42.53
20955;BME280;10636;19.390;-99.256;2023-05-11T03:59:33;77956.06;;;24.49;42.27
20955;BME280;10636;19.390;-99.256;2023-05-11T04:02:04;77959.44;;;24.49;42.32
20955;BME280;10636;19.390;-99.256;2023-05-11T04:04:33;77953.38;;;24.49;42.20
20955;BME280;10636;19.390;-99.256;2023-05-11T04:07:02;77952.00;;;24.48;42.81
20955;BME280;10636;19.390;-99.256;2023-05-11T04:09:32;77954.59;;;24.46;42.73
20955;BME280;10636;19.390;-99.256;2023-05-11T04:12:01;77950.53;;;24.45;42.37
20955;BME280;10636;19.390;-99.256;2023-05-11T04:14:30;77959.28;;;24.45;42.56
20955;BME280;10636;19.390;-99.256;2023-05-11T04:16:59;77951.84;;;24.44;42.53
20955;BME280;10636;19.390;-99.256;2023-05-11T04:19:30;77955.22;;;24.44;42.86
20955;BME280;10636;19.390;-99.256;2023-05-11T04:21:59;77947.16;;;24.44;42.29
20955;BME280;10636;19.390;-99.256;2023-05-11T04:24:28;77929.59;;;24.23;42.72
20955;BME280;10636;19.390;-99.256;2023-05-11T04:26:57;77951.84;;;24.44;43.10
20955;BME280;10636;19.390;-99.256;2023-05-11T04:29:26;77956.53;;;24.43;42.93
20955;BME280;10636;19.390;-99.256;2023-05-11T04:31:56;77967.94;;;24.44;42.94
20955;BME280;10636;19.390;-99.256;2023-05-11T04:34:25;77961.19;;;24.43;43.27
20955;BME280;10636;19.390;-99.256;2023-05-11T04:36:56;77961.25;;;24.45;43.11
20955;BME280;10636;19.390;-99.256;2023-05-11T04:39:25;77962.56;;;24.44;42.93
20955;BME280;10636;19.390;-99.256;2023-05-11T04:41:54;77959.09;;;24.41;43.04
20955;BME280;10636;19.390;-99.256;2023-05-11T04:44:23;77971.22;;;24.42;43.42
20955;BME280;10636;19.390;-99.256;2023-05-11T04:46:54;77968.56;;;24.42;43.11
20955;BME280;10636;19.390;-99.256;2023-05-11T04:49:23;77965.19;;;24.42;43.21
20955;BME280;10636;19.390;-99.256;2023-05-11T04:51:52;77971.22;;;24.42;43.21
20955;BME280;10636;19.390;-99.256;2023-05-11T04:54:23;77974.50;;;24.41;43.15
20955;BME280;10636;19.390;-99.256;2023-05-11T04:56:52;77966.38;;;24.39;42.90
20955;BME280;10636;19.390;-99.256;2023-05-11T04:59:21;77967.00;;;24.37;42.95
20955;BME280;10636;19.390;-99.256;2023-05-11T05:01:50;77959.56;;;24.36;43.12
20955;BME280;10636;19.390;-99.256;2023-05-11T05:04:21;77964.91;;;24.36;43.09
20955;BME280;10636;19.390;-99.256;2023-05-11T05:06:50;77962.25;;;24.36;42.63
20955;BME280;10636;19.390;-99.256;2023-05-11T05:09:19;77955.47;;;24.35;43.31
20955;BME280;10636;19.390;-99.256;2023-05-11T05:11:50;77960.16;;;24.34;43.42
20955;BME280;10636;19.390;-99.256;2023-05-11T05:14:19;77964.81;;;24.34;42.87
20955;BME280;10636;19.390;-99.256;2023-05-11T05:16:48;77959.38;;;24.32;43.25
20955;BME280;10636;19.390;-99.256;2023-05-11T05:19:19;77964.06;;;24.31;42.92
20955;BME280;10636;19.390;-99.256;2023-05-11T05:21:51;77970.00;;;24.30;42.99
20955;BME280;10636;19.390;-99.256;2023-05-11T05:24:20;77968.63;;;24.29;43.03
20955;BME280;10636;19.390;-99.256;2023-05-11T05:26:52;77975.38;;;24.30;42.72
20955;BME280;10636;19.390;-99.256;2023-05-11T05:29:21;77971.31;;;24.29;43.08
20955;BME280;10636;19.390;-99.256;2023-05-11T05:31:53;77979.34;;;24.29;42.55
20955;BME280;10636;19.390;-99.256;2023-05-11T05:34:22;77983.41;;;24.30;42.70
20955;BME280;10636;19.390;-99.256;2023-05-11T05:36:51;77985.41;;;24.29;43.18
20955;BME280;10636;19.390;-99.256;2023-05-11T05:39:20;77979.34;;;24.29;42.77
20955;BME280;10636;19.390;-99.256;2023-05-11T05:41:51;77961.91;;;24.27;42.89
20955;BME280;10636;19.390;-99.256;2023-05-11T05:44:20;77965.78;;;24.24;43.04
20955;BME280;10636;19.390;-99.256;2023-05-11T05:46:52;77958.44;;;24.25;42.77
20955;BME280;10636;19.390;-99.256;2023-05-11T05:49:23;77956.38;;;24.23;42.72
20955;BME280;10636;19.390;-99.256;2023-05-11T05:51:53;77956.38;;;24.23;42.51
20955;BME280;10636;19.390;-99.256;2023-05-11T05:54:22;77955.00;;;24.22;42.43
20955;BME280;10636;19.390;-99.256;2023-05-11T05:56:52;77961.06;;;24.23;42.72
20955;BME280;10636;19.390;-99.256;2023-05-11T05:59:21;77955.69;;;24.23;42.41
20955;BME280;10636;19.390;-99.256;2023-05-11T06:01:51;77956.38;;;24.23;42.45
20955;BME280;10636;19.390;-99.256;2023-05-11T06:04:20;77947.03;;;24.24;42.54
20955;BME280;10636;19.390;-99.256;2023-05-11T06:06:49;77951.63;;;24.22;42.99
20955;BME280;10636;19.390;-99.256;2023-05-11T06:09:18;77949.66;;;24.22;42.98
20955;BME280;10636;19.390;-99.256;2023-05-11T06:11:47;77938.25;;;24.22;42.72
20955;BME280;10636;19.390;-99.256;2023-05-11T06:14:18;77936.19;;;24.20;42.96
20955;BME280;10636;19.390;-99.256;2023-05-11T06:16:48;77934.19;;;24.21;42.50
20955;BME280;10636;19.390;-99.256;2023-05-11T06:19:17;77929.41;;;24.19;42.87
20955;BME280;10636;19.390;-99.256;2023-05-11T06:21:46;77926.84;;;24.21;43.07
20955;BME280;10636;19.390;-99.256;2023-05-11T06:24:15;77927.44;;;24.20;42.59
20955;BME280;10636;19.390;-99.256;2023-05-11T06:26:44;77925.47;;;24.20;42.38
20955;BME280;10636;19.390;-99.256;2023-05-11T06:29:13;77920.00;;;24.18;42.55
20955;BME280;10636;19.390;-99.256;2023-05-11T06:31:44;77916.63;;;24.18;42.94
20955;BME280;10636;19.390;-99.256;2023-05-11T06:34:18;77914.56;;;24.16;42.39
20955;BME280;10636;19.390;-99.256;2023-05-11T06:36:47;77919.31;;;24.18;42.78
20955;BME280;10636;19.390;-99.256;2023-05-11T06:39:17;77928.03;;;24.18;42.38
20955;BME280;10636;19.390;-99.256;2023-05-11T06:41:46;77915.88;;;24.15;42.49
20955;BME280;10636;19.390;-99.256;2023-05-11T06:44:15;77884.31;;;23.96;42.91
20955;BME280;10636;19.390;-99.256;2023-05-11T06:46:46;77909.22;;;24.16;43.06
20955;BME280;10636;19.390;-99.256;2023-05-11T06:49:15;77905.16;;;24.15;42.87
20955;BME280;10636;19.390;-99.256;2023-05-11T06:51:44;77911.81;;;24.14;43.00
20955;BME280;10636;19.390;-99.256;2023-05-11T06:54:13;77913.19;;;24.15;42.53
20955;BME280;10636;19.390;-99.256;2023-05-11T06:56:42;77907.84;;;24.15;42.58
20955;BME280;10636;19.390;-99.256;2023-05-11T06:59:11;77911.81;;;24.14;42.34
20955;BME280;10636;19.390;-99.256;2023-05-11T07:01:40;77906.44;;;24.14;42.58
20955;BME280;10636;19.390;-99.256;2023-05-11T07:04:11;77915.09;;;24.13;43.02
20955;BME280;10636;19.390;-99.256;2023-05-11T07:06:40;77896.28;;;24.11;42.54
20955;BME280;10636;19.390;-99.256;2023-05-11T07:09:09;77906.31;;;24.10;42.86
20955;BME280;10636;19.390;-99.256;2023-05-11T07:11:38;77903.63;;;24.10;43.10
20955;BME280;10636;19.390;-99.256;2023-05-11T07:14:08;77898.94;;;24.11;42.83
20955;BME280;10636;19.390;-99.256;2023-05-11T07:16:37;77902.31;;;24.11;43.10
20955;BME280;10636;19.390;-99.256;2023-05-11T07:19:06;77888.91;;;24.11;42.97
20955;BME280;10636;19.390;-99.256;2023-05-11T07:21:36;77889.53;;;24.10;42.83
20955;BME280;10636;19.390;-99.256;2023-05-11T07:24:08;77900.84;;;24.08;42.35
20955;BME280;10636;19.390;-99.256;2023-05-11T07:26:36;77894.19;;;24.09;42.58
20955;BME280;10636;19.390;-99.256;2023-05-11T07:29:04;77886.06;;;24.07;42.75
20955;BME280;10636;19.390;-99.256;2023-05-11T07:31:33;77881.34;;;24.06;42.47
20955;BME280;10636;19.390;-99.256;2023-05-11T07:34:02;77874.00;;;24.06;42.46
20955;BME280;10636;19.390;-99.256;2023-05-11T07:36:31;77879.25;;;24.04;43.17
20955;BME280;10636;19.390;-99.256;2023-05-11T07:39:01;77881.09;;;23.99;42.88
20955;BME280;10636;19.390;-99.256;2023-05-11T07:41:29;77879.25;;;24.04;42.95
20955;BME280;10636;19.390;-99.256;2023-05-11T07:43:59;77864.25;;;23.97;43.26
20955;BME280;10636;19.390;-99.256;2023-05-11T07:46:28;77875.19;;;24.03;42.54
20955;BME280;10636;19.390;-99.256;2023-05-11T07:48:57;77873.81;;;24.02;42.69
20955;BME280;10636;19.390;-99.256;2023-05-11T07:51:25;77879.19;;;24.02;42.51
20955;BME280;10636;19.390;-99.256;2023-05-11T07:53:54;77873.81;;;24.02;42.61
20955;BME280;10636;19.390;-99.256;2023-05-11T07:56:24;77861.72;;;24.01;43.11
20955;BME280;10636;19.390;-99.256;2023-05-11T07:58:52;77865.72;;;24.00;42.65
20955;BME280;10636;19.390;-99.256;2023-05-11T08:01:21;77863.63;;;23.98;42.63
20955;BME280;10636;19.390;-99.256;2023-05-11T08:03:49;77858.97;;;23.99;43.14
20955;BME280;10636;19.390;-99.256;2023-05-11T08:06:18;77856.91;;;23.97;43.02
20955;BME280;10636;19.390;-99.256;2023-05-11T08:08:46;77853.47;;;23.95;42.49
20955;BME280;10636;19.390;-99.256;2023-05-11T08:11:15;77844.13;;;23.96;42.49
20955;BME280;10636;19.390;-99.256;2023-05-11T08:13:45;77854.16;;;23.95;43.20
20955;BME280;10636;19.390;-99.256;2023-05-11T08:16:13;77863.50;;;23.94;42.76
20955;BME280;10636;19.390;-99.256;2023-05-11T08:18:42;77860.13;;;23.94;43.10
20955;BME280;10636;19.390;-99.256;2023-05-11T08:21:10;77851.38;;;23.93;42.44
20955;BME280;10636;19.390;-99.256;2023-05-11T08:23:39;77845.03;;;23.85;42.55
20955;BME280;10636;19.390;-99.256;2023-05-11T08:26:08;77850.38;;;23.85;42.63
20955;BME280;10636;19.390;-99.256;2023-05-11T08:28:36;77868.00;;;23.90;43.11
20955;BME280;10636;19.390;-99.256;2023-05-11T08:31:06;77857.13;;;23.86;42.95
20955;BME280;10636;19.390;-99.256;2023-05-11T08:33:35;77862.63;;;23.90;43.00
20955;BME280;10636;19.390;-99.256;2023-05-11T08:36:05;77850.56;;;23.89;42.30
20955;BME280;10636;19.390;-99.256;2023-05-11T08:38:34;77850.56;;;23.89;42.79
20955;BME280;10636;19.390;-99.256;2023-05-11T08:41:03;77853.22;;;23.89;42.76
20955;BME280;10636;19.390;-99.256;2023-05-11T08:43:34;77849.53;;;23.80;42.34
20955;BME280;10636;19.390;-99.256;2023-05-11T08:46:06;77863.84;;;23.87;42.91
20955;BME280;10636;19.390;-99.256;2023-05-11T08:48:35;77851.75;;;23.86;42.96
20955;BME280;10636;19.390;-99.256;2023-05-11T08:51:04;77853.06;;;23.85;42.40
20955;BME280;10636;19.390;-99.256;2023-05-11T08:53:33;77851.53;;;23.80;42.53
20955;BME280;10636;19.390;-99.256;2023-05-11T08:56:03;77865.09;;;23.84;42.22
20955;BME280;10636;19.390;-99.256;2023-05-11T08:58:34;77869.13;;;23.85;42.40
20955;BME280;10636;19.390;-99.256;2023-05-11T09:01:06;77872.50;;;23.85;42.71
20955;BME280;10636;19.390;-99.256;2023-05-11T09:03:35;77865.09;;;23.84;42.61
20955;BME280;10636;19.390;-99.256;2023-05-11T09:06:05;77862.41;;;23.84;42.13
20955;BME280;10636;19.390;-99.256;2023-05-11T09:08:34;77869.03;;;23.83;42.43
20955;BME280;10636;19.390;-99.256;2023-05-11T09:11:04;77858.25;;;23.81;42.75
20955;BME280;10636;19.390;-99.256;2023-05-11T09:13:32;77865.59;;;23.80;42.39
20955;BME280;10636;19.390;-99.256;2023-05-11T09:16:01;77862.25;;;23.80;42.70
20955;BME280;10636;19.390;-99.256;2023-05-11T09:18:31;77865.59;;;23.80;42.51
20955;BME280;10636;19.390;-99.256;2023-05-11T09:21:00;77867.59;;;23.80;42.78
20955;BME280;10636;19.390;-99.256;2023-05-11T09:23:29;77864.91;;;23.80;42.19
20955;BME280;10636;19.390;-99.256;2023-05-11T09:25:59;77862.13;;;23.78;41.90
20955;BME280;10636;19.390;-99.256;2023-05-11T09:28:27;77866.22;;;23.79;41.94
20955;BME280;10636;19.390;-99.256;2023-05-11T09:30:56;77865.44;;;23.76;41.79
20955;BME280;10636;19.390;-99.256;2023-05-11T09:33:25;77858.72;;;23.75;41.85
20955;BME280;10636;19.390;-99.256;2023-05-11T09:35:55;77862.13;;;23.78;42.25
20955;BME280;10636;19.390;-99.256;2023-05-11T09:38:24;77860.09;;;23.76;42.47
20955;BME280;10636;19.390;-99.256;2023-05-11T09:40:56;77856.72;;;23.76;41.95
20955;BME280;10636;19.390;-99.256;2023-05-11T09:43:29;77856.66;;;23.73;41.81
20955;BME280;10636;19.390;-99.256;2023-05-11T09:45:59;77862.00;;;23.73;41.86
20955;BME280;10636;19.390;-99.256;2023-05-11T09:48:32;77868.72;;;23.74;41.85
20955;BME280;10636;19.390;-99.256;2023-05-11T09:51:06;77862.00;;;23.73;42.01
20955;BME280;10636;19.390;-99.256;2023-05-11T09:53:39;77860.28;;;23.64;42.38
20955;BME280;10636;19.390;-99.256;2023-05-11T09:56:08;77857.84;;;23.70;42.45
20955;BME280;10636;19.390;-99.256;2023-05-11T09:58:54;77859.06;;;23.67;42.05
20955;BME280;10636;19.390;-99.256;2023-05-11T10:01:30;77863.81;;;23.69;42.40
20955;BME280;10636;19.390;-99.256;2023-05-11T10:04:00;77869.78;;;23.67;41.83
20955;BME280;10636;19.390;-99.256;2023-05-11T10:06:45;77870.47;;;23.68;41.77
20955;BME280;10636;19.390;-99.256;2023-05-11T10:09:16;77871.16;;;23.68;41.89
20955;BME280;10636;19.390;-99.256;2023-05-11T10:11:45;77874.44;;;23.67;42.01
20955;BME280;10636;19.390;-99.256;2023-05-11T10:14:14;77871.75;;;23.67;42.55
20955;BME280;10636;19.390;-99.256;2023-05-11T10:16:43;77875.66;;;23.64;42.03
20955;BME280;10636;19.390;-99.256;2023-05-11T10:19:13;77872.19;;;23.61;42.09
20955;BME280;10636;19.390;-99.256;2023-05-11T10:21:44;77885.75;;;23.65;42.13
20955;BME280;10636;19.390;-99.256;2023-05-11T10:24:13;77887.75;;;23.65;41.64
20955;BME280;10636;19.390;-99.256;2023-05-11T10:26:41;77888.38;;;23.63;42.42
20955;BME280;10636;19.390;-99.256;2023-05-11T10:29:11;77889.75;;;23.64;42.05
20955;BME280;10636;19.390;-99.256;2023-05-11T10:31:41;77886.97;;;23.62;41.74
20955;BME280;10636;19.390;-99.256;2023-05-11T10:34:11;77880.22;;;23.61;42.36
20955;BME280;10636;19.390;-99.256;2023-05-11T10:36:39;77882.81;;;23.59;42.18
20955;BME280;10636;19.390;-99.256;2023-05-11T10:39:10;77880.81;;;23.60;41.74
20955;BME280;10636;19.390;-99.256;2023-05-11T10:41:53;77881.50;;;23.60;42.44
20955;BME280;10636;19.390;-99.256;2023-05-11T10:48:06;77885.50;;;23.59;41.80
20955;BME280;10636;19.390;-99.256;2023-05-11T10:50:52;77882.75;;;23.57;41.42
20955;BME280;10636;19.390;-99.256;2023-05-11T10:53:39;77886.09;;;23.58;41.62
20955;BME280;10636;19.390;-99.256;2023-05-11T10:56:25;77879.97;;;23.55;42.25
20955;BME280;10636;19.390;-99.256;2023-05-11T10:59:15;77881.34;;;23.56;42.09
20955;BME280;10636;19.390;-99.256;2023-05-11T11:01:49;77894.66;;;23.54;41.98
20955;BME280;10636;19.390;-99.256;2023-05-11T11:04:20;77898.63;;;23.53;42.19
20955;BME280;10636;19.390;-99.256;2023-05-11T11:07:03;77899.84;;;23.50;41.51
20955;BME280;10636;19.390;-99.256;2023-05-11T11:09:49;77898.53;;;23.51;41.50
20955;BME280;10636;19.390;-99.256;2023-05-11T11:12:20;77884.84;;;23.43;42.17
20955;BME280;10636;19.390;-99.256;2023-05-11T11:14:57;77897.09;;;23.48;41.89
20955;BME280;10636;19.390;-99.256;2023-05-11T11:17:27;77896.91;;;23.44;42.31
20955;BME280;10636;19.390;-99.256;2023-05-11T11:19:57;77895.03;;;23.46;42.33
20955;BME280;10636;19.390;-99.256;2023-05-11T11:22:45;77899.66;;;23.46;41.43
20955;BME280;10636;19.390;-99.256;2023-05-11T11:25:15;77890.25;;;23.45;41.88
20955;BME280;10636;19.390;-99.256;2023-05-11T11:28:05;77900.38;;;23.46;41.47
20955;BME280;10636;19.390;-99.256;2023-05-11T11:30:33;77897.00;;;23.46;41.79
20955;BME280;10636;19.390;-99.256;2023-05-11T11:33:32;77915.72;;;23.46;41.17
20955;BME280;10636;19.390;-99.256;2023-05-11T11:36:01;77903.47;;;23.41;41.77
20955;BME280;10636;19.390;-99.256;2023-05-11T11:38:30;77914.34;;;23.45;41.75
20955;BME280;10636;19.390;-99.256;2023-05-11T11:41:00;77916.94;;;23.43;41.58
20955;BME280;10636;19.390;-99.256;2023-05-11T11:43:43;77927.66;;;23.43;41.99
20955;BME280;10636;19.390;-99.256;2023-05-11T11:46:25;77933.69;;;23.43;42.37
20955;BME280;10636;19.390;-99.256;2023-05-11T11:49:06;77939.75;;;23.44;42.40
20955;BME280;10636;19.390;-99.256;2023-05-11T11:51:35;77930.94;;;23.41;42.29
20955;BME280;10636;19.390;-99.256;2023-05-11T11:54:05;77933.00;;;23.43;42.03
20955;BME280;10636;19.390;-99.256;2023-05-11T11:56:40;77936.31;;;23.41;42.43
20955;BME280;10636;19.390;-99.256;2023-05-11T11:59:11;77929.91;;;23.33;41.85
20955;BME280;10636;19.390;-99.256;2023-05-11T12:01:42;77937.50;;;23.38;42.07
20955;BME280;10636;19.390;-99.256;2023-05-11T12:04:37;77932.16;;;23.38;42.82
20955;BME280;10636;19.390;-99.256;2023-05-11T12:07:07;77935.44;;;23.37;42.44
20955;BME280;10636;19.390;-99.256;2023-05-11T12:09:39;77939.50;;;23.38;42.30
20955;BME280;10636;19.390;-99.256;2023-05-11T12:12:08;77937.50;;;23.38;42.74
20955;BME280;10636;19.390;-99.256;2023-05-11T12:14:40;77936.81;;;23.38;42.03
20955;BME280;10636;19.390;-99.256;2023-05-11T12:17:15;77942.16;;;23.38;42.77
20955;BME280;10636;19.390;-99.256;2023-05-11T12:19:44;77929.13;;;23.30;42.24
20955;BME280;10636;19.390;-99.256;2023-05-11T12:22:12;77936.13;;;23.37;42.60
20955;BME280;10636;19.390;-99.256;2023-05-11T12:24:42;77942.16;;;23.38;42.91
20955;BME280;10636;19.390;-99.256;2023-05-11T12:27:11;77948.81;;;23.37;42.86
20955;BME280;10636;19.390;-99.256;2023-05-11T12:29:41;77941.47;;;23.37;42.43
20955;BME280;10636;19.390;-99.256;2023-05-11T12:32:11;77951.56;;;23.39;42.36
20955;BME280;10636;19.390;-99.256;2023-05-11T12:34:40;77946.03;;;23.35;42.90
20955;BME280;10636;19.390;-99.256;2023-05-11T12:37:09;77946.03;;;23.35;42.30
20955;BME280;10636;19.390;-99.256;2023-05-11T12:39:37;77951.81;;;23.29;42.37
20955;BME280;10636;19.390;-99.256;2023-05-11T12:42:06;77960.97;;;23.24;41.84
20955;BME280;10636;19.390;-99.256;2023-05-11T12:44:34;77960.09;;;23.19;42.24
20955;BME280;10636;19.390;-99.256;2023-05-11T12:47:05;77972.72;;;23.17;42.55
20955;BME280;10636;19.390;-99.256;2023-05-11T12:49:33;77977.38;;;23.16;42.35
20955;BME280;10636;19.390;-99.256;2023-05-11T12:52:03;77969.78;;;23.11;42.18
20955;BME280;10636;19.390;-99.256;2023-05-11T12:54:34;77975.72;;;23.09;42.08
20955;BME280;10636;19.390;-99.256;2023-05-11T12:57:05;77991.19;;;23.11;42.22
20955;BME280;10636;19.390;-99.256;2023-05-11T12:59:35;77987.72;;;23.08;42.00
20955;BME280;10636;19.390;-99.256;2023-05-11T13:02:07;77981.59;;;23.06;42.07
20955;BME280;10636;19.390;-99.256;2023-05-11T13:04:37;77987.72;;;23.08;41.33